Novomar — 5BCT2 — position and weather

sailwx.info

Track history (hours):
 
Tides and Currents Weather Stations Pressure Air Temp Water Temp Dewpoint Dewpoint Depression Visibility Wind Speed Wind Dir Waves Ship Positions

Novomar

Last reported at 2015-Feb-27 11:34 UTC. Time now 2015-Feb-27 16:55 UTC.
Position N 55°35' E 015°15'.

Length 89 m; draft 4.7 m.

Type: Cargo ship. MMSI: 210974000.

Date/timePositionNaut miles runAvg speedWind from/ knotsBaromVisibWave heightAir tempDewpointWater temp
2015-Feb-27 11:34N 55°35' E 015°15'1010.3
2015-Feb-27 10:34N 55°30' E 014°59'1010.2
2015-Feb-27 09:34N 55°25' E 014°43'1010.2
2015-Feb-27 08:34N 55°18' E 014°31'1010.4
2015-Feb-27 07:34N 55°10' E 014°19'1010.3
2015-Feb-27 06:33N 55°02' E 014°07'1010.4
2015-Feb-27 05:34N 54°58' E 013°51'1010.3
2015-Feb-27 04:33N 54°55' E 013°33'2110.1
2015-Feb-27 02:28N 54°48' E 012°59'9 9.9
2015-Feb-27 01:33N 54°44' E 012°44'1010.0
2015-Feb-27 00:33N 54°38' E 012°32'1010.0
2015-Feb-26 23:32N 54°32' E 012°17'9 9.0
2015-Feb-26 22:33N 54°25' E 012°07'10 9.8
2015-Feb-26 21:33N 54°25' E 011°51'9 9.5
2015-Feb-26 20:33N 54°28' E 011°35'10 9.5
2015-Feb-26 19:33N 54°32' E 011°20'9 9.0
2015-Feb-26 18:33N 54°35' E 011°05'2010.0
2015-Feb-26 16:33N 54°32' E 010°31'9 9.3
2015-Feb-26 15:33N 54°28' E 010°17'7 6.8
2015-Feb-26 14:33N 54°23' E 010°10'0 0.0
2015-Feb-26 13:33N 54°23' E 010°10'1 1.2
2015-Feb-26 12:33N 54°22' E 010°09'6 5.6
2015-Feb-26 11:33N 54°21' E 009°59'8 7.7
2015-Feb-26 10:33N 54°21' E 009°46'18 5.6
2015-Feb-26 07:20N 54°09' E 009°23'6 8.0
2015-Feb-26 06:33N 54°04' E 009°19'8 7.9
2015-Feb-26 05:33N 53°56' E 009°13'4 3.8
2015-Feb-26 04:34N 53°54' E 009°09'7 6.7
2015-Feb-26 03:33N 53°51' E 008°58'1211.5
2015-Feb-26 02:33N 53°55' E 008°40'1312.6
2015-Feb-26 01:33N 53°60' E 008°20'9 9.4
2015-Feb-26 00:33N 53°59' E 008°04'9 9.0
2015-Feb-25 23:33N 53°57' E 007°49'9 8.9
2015-Feb-25 22:33N 53°55' E 007°34'9 9.0
2015-Feb-25 21:33N 53°53' E 007°19'44 8.7
2015-Feb-25 16:32N 53°42' E 006°08'9 9.4
2015-Feb-25 15:33N 53°39' E 005°53'10 9.8
2015-Feb-25 14:33N 53°36' E 005°38'1010.3
2015-Feb-25 13:34N 53°32' E 005°21'1110.8
2015-Feb-25 12:34N 53°29' E 005°04'1111.2
2015-Feb-25 11:33N 53°25' E 004°47'2611.0
2015-Feb-25 09:13N 53°03' E 004°24'711.1
2015-Feb-25 08:34N 52°56' E 004°19'1111.3
2015-Feb-25 07:33N 52°46' E 004°09'1211.3
2015-Feb-25 06:32N 52°38' E 003°56'82 9.1
2015-Feb-24 21:33N 51°52' E 002°05'1110.5
2015-Feb-24 20:33N 51°49' E 001°49'1110.6
2015-Feb-24 19:33N 51°47' E 001°32'1212.3
2015-Feb-24 18:34N 51°40' E 001°17'1212.2
2015-Feb-24 17:33N 51°32' E 001°01'1110.6
2015-Feb-24 16:34N 51°29' E 000°45'9 9.4
2015-Feb-24 15:33N 51°30' E 000°30'6 6.3
2015-Feb-24 14:33N 51°27' E 000°20'0 0.3
2015-Feb-24 13:31N 51°28' E 000°21'0 0.0
2015-Feb-24 12:31N 51°28' E 000°21'0 0.3
2015-Feb-24 11:32N 51°27' E 000°21'0 0.0
2015-Feb-24 10:34N 51°27' E 000°21'0 0.0
2015-Feb-24 09:33N 51°27' E 000°21'0 0.0
2015-Feb-24 08:33N 51°27' E 000°21'0 0.0
2015-Feb-24 07:33N 51°27' E 000°21'0 0.0
2015-Feb-24 06:34N 51°27' E 000°21'0 0.0
2015-Feb-24 05:33N 51°27' E 000°21'0 0.0
2015-Feb-24 04:33N 51°27' E 000°21'0 0.0
2015-Feb-24 03:34N 51°27' E 000°21'0 0.0
2015-Feb-24 02:32N 51°27' E 000°21'0 0.0
2015-Feb-24 01:33N 51°27' E 000°21'0 0.0
2015-Feb-24 00:33N 51°27' E 000°21'0 0.0
2015-Feb-23 23:34N 51°27' E 000°21'0 0.0
2015-Feb-23 22:33N 51°27' E 000°21'0 0.0
2015-Feb-23 21:33N 51°27' E 000°21'0 0.0
2015-Feb-23 20:33N 51°27' E 000°21'0 0.0
2015-Feb-23 19:33N 51°27' E 000°21'0 0.0
2015-Feb-23 18:33N 51°27' E 000°21'0 0.0
2015-Feb-23 17:34N 51°27' E 000°21'0 0.0
2015-Feb-23 16:34N 51°27' E 000°21'0 0.0
2015-Feb-23 15:33N 51°27' E 000°21'0 0.0
2015-Feb-23 14:31N 51°27' E 000°21'0 0.0
2015-Feb-23 13:34N 51°27' E 000°21'0 0.0
2015-Feb-23 12:31N 51°27' E 000°21'0 0.0
2015-Feb-23 11:34N 51°27' E 000°21'0 0.0
2015-Feb-23 10:31N 51°27' E 000°21'0 0.0
2015-Feb-23 09:33N 51°27' E 000°21'0 0.0
2015-Feb-23 08:33N 51°27' E 000°21'0 0.0
2015-Feb-23 07:34N 51°27' E 000°21'0 0.3
2015-Feb-23 06:34N 51°28' E 000°21'0 0.0
2015-Feb-23 05:31N 51°28' E 000°21'0 0.0
2015-Feb-23 04:31N 51°28' E 000°21'0 0.0
2015-Feb-23 03:31N 51°28' E 000°21'0 0.0
2015-Feb-23 02:31N 51°28' E 000°21'0 0.0
2015-Feb-23 01:34N 51°28' E 000°21'0 0.0
2015-Feb-23 00:34N 51°28' E 000°21'0 0.0
2015-Feb-22 23:34N 51°28' E 000°21'0 0.0
2015-Feb-22 22:34N 51°28' E 000°21'0 0.0
2015-Feb-22 21:34N 51°28' E 000°21'0 0.0
2015-Feb-22 20:34N 51°28' E 000°21'0 0.0
2015-Feb-22 19:34N 51°28' E 000°21'0 0.0
2015-Feb-22 18:34N 51°28' E 000°21'0 0.0
2015-Feb-22 17:32N 51°28' E 000°21'0 0.0
2015-Feb-22 16:33N 51°28' E 000°21'0 0.0
2015-Feb-22 15:32N 51°28' E 000°21'0 0.0
2015-Feb-22 14:32N 51°28' E 000°21'0 0.0
2015-Feb-22 13:33N 51°28' E 000°21'0 0.0
2015-Feb-22 12:34N 51°28' E 000°21'0 0.0
2015-Feb-22 11:34N 51°28' E 000°21'0 0.0
2015-Feb-22 10:34N 51°28' E 000°21'0 0.0
2015-Feb-22 09:34N 51°28' E 000°21'0 0.0
2015-Feb-22 08:33N 51°28' E 000°21'0 0.0
2015-Feb-22 07:33N 51°28' E 000°21'0 0.0
2015-Feb-22 06:33N 51°28' E 000°21'0 0.0
2015-Feb-22 05:34N 51°28' E 000°21'0 0.0
2015-Feb-22 04:33N 51°28' E 000°21'0 0.0
2015-Feb-22 03:33N 51°28' E 000°21'0 0.0
2015-Feb-22 02:33N 51°28' E 000°21'0 0.0
2015-Feb-22 01:34N 51°28' E 000°21'0 0.0
2015-Feb-22 00:33N 51°28' E 000°21'0 0.0
2015-Feb-21 23:34N 51°28' E 000°21'0 0.0
2015-Feb-21 22:33N 51°28' E 000°21'0 0.0
2015-Feb-21 21:32N 51°28' E 000°21'0 0.0
2015-Feb-21 20:34N 51°28' E 000°21'0 0.0
2015-Feb-21 19:34N 51°28' E 000°21'0 0.0
2015-Feb-21 18:33N 51°28' E 000°21'0 0.0
2015-Feb-21 17:33N 51°28' E 000°21'0 0.0
2015-Feb-21 16:32N 51°28' E 000°21'0 0.0
2015-Feb-21 15:34N 51°28' E 000°21'0 0.0
2015-Feb-21 14:32N 51°28' E 000°21'0 0.0
2015-Feb-21 13:34N 51°28' E 000°21'0 0.0
2015-Feb-21 12:33N 51°28' E 000°21'0 0.0
2015-Feb-21 11:34N 51°28' E 000°21'0 0.0
2015-Feb-21 10:34N 51°28' E 000°21'0 0.0
2015-Feb-21 09:34N 51°28' E 000°21'0 0.0
2015-Feb-21 08:33N 51°28' E 000°21'0 0.0
2015-Feb-21 07:31N 51°28' E 000°21'0 0.0
2015-Feb-21 06:31N 51°28' E 000°21'0 0.0
2015-Feb-21 05:34N 51°28' E 000°21'0 0.0
2015-Feb-21 04:31N 51°28' E 000°21'0 0.0
2015-Feb-21 03:31N 51°28' E 000°21'0 0.0
2015-Feb-21 02:33N 51°28' E 000°21'0 0.0
2015-Feb-21 01:34N 51°28' E 000°21'0 0.0
2015-Feb-21 00:34N 51°28' E 000°21'0 0.4
2015-Feb-20 23:33N 51°27' E 000°20'3 2.6
2015-Feb-20 22:34N 51°27' E 000°25'8 8.3
2015-Feb-20 21:33N 51°30' E 000°37'1111.1
2015-Feb-20 20:33N 51°30' E 000°55'2 2.0
2015-Feb-20 19:32N 51°30' E 000°58'0 0.0
2015-Feb-20 18:31N 51°30' E 000°58'1 1.3
2015-Feb-20 17:33N 51°29' E 000°59'8 8.4
2015-Feb-20 16:33N 51°29' E 001°12'8 8.3
2015-Feb-20 15:33N 51°29' E 001°26'9 9.1
2015-Feb-20 14:33N 51°30' E 001°40'9 9.0
2015-Feb-20 13:33N 51°27' E 001°54'10 8.9
2015-Feb-20 12:25N 51°20' E 002°06'8 9.0
2015-Feb-20 11:33N 51°13' E 002°02'11 9.8
2015-Feb-20 10:28N 51°08' E 001°47'7 7.5
2015-Feb-20 09:31N 51°03' E 001°39'6 6.1
2015-Feb-20 08:30N 50°58' E 001°32'6 6.0
2015-Feb-20 07:32N 50°54' E 001°27'88 7.7
2015-Feb-19 20:10N 49°48' W 000°06'6 9.8
2015-Feb-19 19:33N 49°43' W 000°07'9 9.3
2015-Feb-19 18:33N 49°33' W 000°07'8 7.9
2015-Feb-19 17:33N 49°27' E 000°01'1313.2
2015-Feb-19 16:33N 49°26' E 000°21'1111.0
2015-Feb-19 15:31N 49°27' E 000°38'0 0.0
2015-Feb-18 11:25N 49°27' E 000°39'8 8.8
2015-Feb-18 10:33N 49°28' E 000°27'1110.8
2015-Feb-18 09:34N 49°26' E 000°11'1010.3
2015-Feb-18 08:33N 49°29' W 000°04'6 5.7
2015-Feb-18 07:33N 49°34' W 000°08'10 7.2
2015-Feb-18 06:14N 49°43' W 000°08'52 9.1
2015-Feb-18 00:32N 50°33' E 000°18'1111.6
2015-Feb-17 23:33N 50°38' E 000°35'1110.7
2015-Feb-17 22:33N 50°43' E 000°50'2010.1
2015-Feb-17 20:33N 50°54' E 001°16'1212.4
2015-Feb-17 19:34N 51°03' E 001°30'2813.8
2015-Feb-17 17:33N 51°24' E 001°58'1110.5
2015-Feb-17 16:32N 51°21' E 002°15'1111.2
2015-Feb-17 15:33N 51°23' E 002°33'1110.5
2015-Feb-17 14:33N 51°22' E 002°49'20 9.8
2015-Feb-17 12:33N 51°24' E 003°21'  
Track history (hours):
 
Tides and Currents Weather Stations Pressure Air Temp Water Temp Dewpoint Dewpoint Depression Visibility Wind Speed Wind Dir Waves Ship Positions

Novomar

Last reported at 2015-Feb-27 11:34 UTC. Time now 2015-Feb-27 16:55 UTC.
Position N 55°35' E 015°15'.

Length 89 m; draft 4.7 m.

Type: Cargo ship. MMSI: 210974000.

Date/timePositionNaut miles runAvg speedWind from/ knotsBaromVisibWave heightAir tempDewpointWater temp
2015-Feb-27 11:34N 55°35' E 015°15'1010.3
2015-Feb-27 10:34N 55°30' E 014°59'1010.2
2015-Feb-27 09:34N 55°25' E 014°43'1010.2
2015-Feb-27 08:34N 55°18' E 014°31'1010.4
2015-Feb-27 07:34N 55°10' E 014°19'1010.3
2015-Feb-27 06:33N 55°02' E 014°07'1010.4
2015-Feb-27 05:34N 54°58' E 013°51'1010.3
2015-Feb-27 04:33N 54°55' E 013°33'2110.1
2015-Feb-27 02:28N 54°48' E 012°59'9 9.9
2015-Feb-27 01:33N 54°44' E 012°44'1010.0
2015-Feb-27 00:33N 54°38' E 012°32'1010.0
2015-Feb-26 23:32N 54°32' E 012°17'9 9.0
2015-Feb-26 22:33N 54°25' E 012°07'10 9.8
2015-Feb-26 21:33N 54°25' E 011°51'9 9.5
2015-Feb-26 20:33N 54°28' E 011°35'10 9.5
2015-Feb-26 19:33N 54°32' E 011°20'9 9.0
2015-Feb-26 18:33N 54°35' E 011°05'2010.0
2015-Feb-26 16:33N 54°32' E 010°31'9 9.3
2015-Feb-26 15:33N 54°28' E 010°17'7 6.8
2015-Feb-26 14:33N 54°23' E 010°10'0 0.0
2015-Feb-26 13:33N 54°23' E 010°10'1 1.2
2015-Feb-26 12:33N 54°22' E 010°09'6 5.6
2015-Feb-26 11:33N 54°21' E 009°59'8 7.7
2015-Feb-26 10:33N 54°21' E 009°46'18 5.6
2015-Feb-26 07:20N 54°09' E 009°23'6 8.0
2015-Feb-26 06:33N 54°04' E 009°19'8 7.9
2015-Feb-26 05:33N 53°56' E 009°13'4 3.8
2015-Feb-26 04:34N 53°54' E 009°09'7 6.7
2015-Feb-26 03:33N 53°51' E 008°58'1211.5
2015-Feb-26 02:33N 53°55' E 008°40'1312.6
2015-Feb-26 01:33N 53°60' E 008°20'9 9.4
2015-Feb-26 00:33N 53°59' E 008°04'9 9.0
2015-Feb-25 23:33N 53°57' E 007°49'9 8.9
2015-Feb-25 22:33N 53°55' E 007°34'9 9.0
2015-Feb-25 21:33N 53°53' E 007°19'44 8.7
2015-Feb-25 16:32N 53°42' E 006°08'9 9.4
2015-Feb-25 15:33N 53°39' E 005°53'10 9.8
2015-Feb-25 14:33N 53°36' E 005°38'1010.3
2015-Feb-25 13:34N 53°32' E 005°21'1110.8
2015-Feb-25 12:34N 53°29' E 005°04'1111.2
2015-Feb-25 11:33N 53°25' E 004°47'2611.0
2015-Feb-25 09:13N 53°03' E 004°24'711.1
2015-Feb-25 08:34N 52°56' E 004°19'1111.3
2015-Feb-25 07:33N 52°46' E 004°09'1211.3
2015-Feb-25 06:32N 52°38' E 003°56'82 9.1
2015-Feb-24 21:33N 51°52' E 002°05'1110.5
2015-Feb-24 20:33N 51°49' E 001°49'1110.6
2015-Feb-24 19:33N 51°47' E 001°32'1212.3
2015-Feb-24 18:34N 51°40' E 001°17'1212.2
2015-Feb-24 17:33N 51°32' E 001°01'1110.6
2015-Feb-24 16:34N 51°29' E 000°45'9 9.4
2015-Feb-24 15:33N 51°30' E 000°30'6 6.3
2015-Feb-24 14:33N 51°27' E 000°20'0 0.3
2015-Feb-24 13:31N 51°28' E 000°21'0 0.0
2015-Feb-24 12:31N 51°28' E 000°21'0 0.3
2015-Feb-24 11:32N 51°27' E 000°21'0 0.0
2015-Feb-24 10:34N 51°27' E 000°21'0 0.0
2015-Feb-24 09:33N 51°27' E 000°21'0 0.0
2015-Feb-24 08:33N 51°27' E 000°21'0 0.0
2015-Feb-24 07:33N 51°27' E 000°21'0 0.0
2015-Feb-24 06:34N 51°27' E 000°21'0 0.0
2015-Feb-24 05:33N 51°27' E 000°21'0 0.0
2015-Feb-24 04:33N 51°27' E 000°21'0 0.0
2015-Feb-24 03:34N 51°27' E 000°21'0 0.0
2015-Feb-24 02:32N 51°27' E 000°21'0 0.0
2015-Feb-24 01:33N 51°27' E 000°21'0 0.0
2015-Feb-24 00:33N 51°27' E 000°21'0 0.0
2015-Feb-23 23:34N 51°27' E 000°21'0 0.0
2015-Feb-23 22:33N 51°27' E 000°21'0 0.0
2015-Feb-23 21:33N 51°27' E 000°21'0 0.0
2015-Feb-23 20:33N 51°27' E 000°21'0 0.0
2015-Feb-23 19:33N 51°27' E 000°21'0 0.0
2015-Feb-23 18:33N 51°27' E 000°21'0 0.0
2015-Feb-23 17:34N 51°27' E 000°21'0 0.0
2015-Feb-23 16:34N 51°27' E 000°21'0 0.0
2015-Feb-23 15:33N 51°27' E 000°21'0 0.0
2015-Feb-23 14:31N 51°27' E 000°21'0 0.0
2015-Feb-23 13:34N 51°27' E 000°21'0 0.0
2015-Feb-23 12:31N 51°27' E 000°21'0 0.0
2015-Feb-23 11:34N 51°27' E 000°21'0 0.0
2015-Feb-23 10:31N 51°27' E 000°21'0 0.0
2015-Feb-23 09:33N 51°27' E 000°21'0 0.0
2015-Feb-23 08:33N 51°27' E 000°21'0 0.0
2015-Feb-23 07:34N 51°27' E 000°21'0 0.3
2015-Feb-23 06:34N 51°28' E 000°21'0 0.0
2015-Feb-23 05:31N 51°28' E 000°21'0 0.0
2015-Feb-23 04:31N 51°28' E 000°21'0 0.0
2015-Feb-23 03:31N 51°28' E 000°21'0 0.0
2015-Feb-23 02:31N 51°28' E 000°21'0 0.0
2015-Feb-23 01:34N 51°28' E 000°21'0 0.0
2015-Feb-23 00:34N 51°28' E 000°21'0 0.0
2015-Feb-22 23:34N 51°28' E 000°21'0 0.0
2015-Feb-22 22:34N 51°28' E 000°21'0 0.0
2015-Feb-22 21:34N 51°28' E 000°21'0 0.0
2015-Feb-22 20:34N 51°28' E 000°21'0 0.0
2015-Feb-22 19:34N 51°28' E 000°21'0 0.0
2015-Feb-22 18:34N 51°28' E 000°21'0 0.0
2015-Feb-22 17:32N 51°28' E 000°21'0 0.0
2015-Feb-22 16:33N 51°28' E 000°21'0 0.0
2015-Feb-22 15:32N 51°28' E 000°21'0 0.0
2015-Feb-22 14:32N 51°28' E 000°21'0 0.0
2015-Feb-22 13:33N 51°28' E 000°21'0 0.0
2015-Feb-22 12:34N 51°28' E 000°21'0 0.0
2015-Feb-22 11:34N 51°28' E 000°21'0 0.0
2015-Feb-22 10:34N 51°28' E 000°21'0 0.0
2015-Feb-22 09:34N 51°28' E 000°21'0 0.0
2015-Feb-22 08:33N 51°28' E 000°21'0 0.0
2015-Feb-22 07:33N 51°28' E 000°21'0 0.0
2015-Feb-22 06:33N 51°28' E 000°21'0 0.0
2015-Feb-22 05:34N 51°28' E 000°21'0 0.0
2015-Feb-22 04:33N 51°28' E 000°21'0 0.0
2015-Feb-22 03:33N 51°28' E 000°21'0 0.0
2015-Feb-22 02:33N 51°28' E 000°21'0 0.0
2015-Feb-22 01:34N 51°28' E 000°21'0 0.0
2015-Feb-22 00:33N 51°28' E 000°21'0 0.0
2015-Feb-21 23:34N 51°28' E 000°21'0 0.0
2015-Feb-21 22:33N 51°28' E 000°21'0 0.0
2015-Feb-21 21:32N 51°28' E 000°21'0 0.0
2015-Feb-21 20:34N 51°28' E 000°21'0 0.0
2015-Feb-21 19:34N 51°28' E 000°21'0 0.0
2015-Feb-21 18:33N 51°28' E 000°21'0 0.0
2015-Feb-21 17:33N 51°28' E 000°21'0 0.0
2015-Feb-21 16:32N 51°28' E 000°21'0 0.0
2015-Feb-21 15:34N 51°28' E 000°21'0 0.0
2015-Feb-21 14:32N 51°28' E 000°21'0 0.0
2015-Feb-21 13:34N 51°28' E 000°21'0 0.0
2015-Feb-21 12:33N 51°28' E 000°21'0 0.0
2015-Feb-21 11:34N 51°28' E 000°21'0 0.0
2015-Feb-21 10:34N 51°28' E 000°21'0 0.0
2015-Feb-21 09:34N 51°28' E 000°21'0 0.0
2015-Feb-21 08:33N 51°28' E 000°21'0 0.0
2015-Feb-21 07:31N 51°28' E 000°21'0 0.0
2015-Feb-21 06:31N 51°28' E 000°21'0 0.0
2015-Feb-21 05:34N 51°28' E 000°21'0 0.0
2015-Feb-21 04:31N 51°28' E 000°21'0 0.0
2015-Feb-21 03:31N 51°28' E 000°21'0 0.0
2015-Feb-21 02:33N 51°28' E 000°21'0 0.0
2015-Feb-21 01:34N 51°28' E 000°21'0 0.0
2015-Feb-21 00:34N 51°28' E 000°21'0 0.4
2015-Feb-20 23:33N 51°27' E 000°20'3 2.6
2015-Feb-20 22:34N 51°27' E 000°25'8 8.3
2015-Feb-20 21:33N 51°30' E 000°37'1111.1
2015-Feb-20 20:33N 51°30' E 000°55'2 2.0
2015-Feb-20 19:32N 51°30' E 000°58'0 0.0
2015-Feb-20 18:31N 51°30' E 000°58'1 1.3
2015-Feb-20 17:33N 51°29' E 000°59'8 8.4
2015-Feb-20 16:33N 51°29' E 001°12'8 8.3
2015-Feb-20 15:33N 51°29' E 001°26'9 9.1
2015-Feb-20 14:33N 51°30' E 001°40'9 9.0
2015-Feb-20 13:33N 51°27' E 001°54'10 8.9
2015-Feb-20 12:25N 51°20' E 002°06'8 9.0
2015-Feb-20 11:33N 51°13' E 002°02'11 9.8
2015-Feb-20 10:28N 51°08' E 001°47'7 7.5
2015-Feb-20 09:31N 51°03' E 001°39'6 6.1
2015-Feb-20 08:30N 50°58' E 001°32'6 6.0
2015-Feb-20 07:32N 50°54' E 001°27'88 7.7
2015-Feb-19 20:10N 49°48' W 000°06'6 9.8
2015-Feb-19 19:33N 49°43' W 000°07'9 9.3
2015-Feb-19 18:33N 49°33' W 000°07'8 7.9
2015-Feb-19 17:33N 49°27' E 000°01'1313.2
2015-Feb-19 16:33N 49°26' E 000°21'1111.0
2015-Feb-19 15:31N 49°27' E 000°38'0 0.0
2015-Feb-18 11:25N 49°27' E 000°39'8 8.8
2015-Feb-18 10:33N 49°28' E 000°27'1110.8
2015-Feb-18 09:34N 49°26' E 000°11'1010.3
2015-Feb-18 08:33N 49°29' W 000°04'6 5.7
2015-Feb-18 07:33N 49°34' W 000°08'10 7.2
2015-Feb-18 06:14N 49°43' W 000°08'52 9.1
2015-Feb-18 00:32N 50°33' E 000°18'1111.6
2015-Feb-17 23:33N 50°38' E 000°35'1110.7
2015-Feb-17 22:33N 50°43' E 000°50'2010.1
2015-Feb-17 20:33N 50°54' E 001°16'1212.4
2015-Feb-17 19:34N 51°03' E 001°30'2813.8
2015-Feb-17 17:33N 51°24' E 001°58'1110.5
2015-Feb-17 16:32N 51°21' E 002°15'1111.2
2015-Feb-17 15:33N 51°23' E 002°33'1110.5
2015-Feb-17 14:33N 51°22' E 002°49'20 9.8
2015-Feb-17 12:33N 51°24' E 003°21'  

Dump ship's entire track history